Time;durP1;ratioP1;P1;durP2;ratioP2;P2;SDS_P1;SDS_P2;PMS_P1;PMS_P2;Temp;Humidity;BMP_temperature;BMP_pressure;BME280_temperature;BME280_humidity;BME280_pressure;Samples;Min_cycle;Max_cycle;Signal;HPM_P1;HPM_P2
2024/01/30 00:00:09;;;;;;;21.90;16.70;;;;;;;-0.38;100.00;102719.89;87229;280;137613;-65
2024/01/30 00:02:12;;;;;;;18.00;14.80;;;;;;;-0.27;100.00;102719.31;87211;276;22583;-67
2024/01/30 00:04:16;;;;;;;18.10;14.10;;;;;;;-0.23;100.00;102718.09;87131;269;137414;-66
2024/01/30 00:06:20;;;;;;;19.00;14.30;;;;;;;-0.24;100.00;102720.04;87209;278;22934;-64
2024/01/30 00:08:22;;;;;;;22.30;14.40;;;;;;;-0.24;100.00;102717.09;86902;269;137102;-63
2024/01/30 00:10:24;;;;;;;17.40;13.30;;;;;;;-0.25;100.00;102719.20;87109;269;25197;-67
2024/01/30 00:12:26;;;;;;;22.30;14.60;;;;;;;-0.24;100.00;102716.72;87178;269;136631;-80
2024/01/30 00:14:28;;;;;;;20.80;14.80;;;;;;;-0.24;100.00;102717.77;87272;270;23992;-63
2024/01/30 00:16:30;;;;;;;19.20;13.90;;;;;;;-0.24;100.00;102717.79;87212;273;136328;-68
2024/01/30 00:18:32;;;;;;;19.10;13.90;;;;;;;-0.25;100.00;102715.70;87166;269;22518;-65
2024/01/30 00:20:35;;;;;;;20.40;14.60;;;;;;;-0.26;100.00;102714.86;87101;270;136562;-68
2024/01/30 00:22:37;;;;;;;17.10;12.70;;;;;;;-0.27;100.00;102713.71;87297;269;24026;-64
2024/01/30 00:24:38;;;;;;;17.10;12.10;;;;;;;-0.27;100.00;102714.38;87064;265;136732;-67
2024/01/30 00:26:40;;;;;;;20.50;12.30;;;;;;;-0.28;100.00;102712.00;87231;269;22564;-64
2024/01/30 00:28:45;;;;;;;15.40;11.90;;;;;;;-0.31;100.00;102707.21;87194;274;136648;-67
2024/01/30 00:30:46;;;;;;;15.00;11.10;;;;;;;-0.32;100.00;102702.56;87176;266;22584;-69
2024/01/30 00:32:48;;;;;;;17.20;12.70;;;;;;;-0.33;100.00;102702.08;87135;276;136720;-66
2024/01/30 00:34:50;;;;;;;16.50;12.80;;;;;;;-0.33;100.00;102698.05;87270;273;23988;-64
2024/01/30 00:36:52;;;;;;;14.80;11.80;;;;;;;-0.35;100.00;102694.27;87227;264;136538;-64
2024/01/30 00:38:54;;;;;;;13.30;10.20;;;;;;;-0.29;100.00;102691.42;87279;269;22536;-70
2024/01/30 00:40:55;;;;;;;13.90;10.00;;;;;;;-0.18;100.00;102686.11;87102;268;138569;-66
2024/01/30 00:42:57;;;;;;;12.60;9.20;;;;;;;-0.08;100.00;102685.18;87228;269;22749;-64
2024/01/30 00:44:59;;;;;;;14.50;9.80;;;;;;;-0.03;100.00;102686.20;87180;269;138326;-79
2024/01/30 00:47:01;;;;;;;11.80;9.70;;;;;;;-0.11;100.00;102688.45;87309;270;22577;-65
2024/01/30 00:49:02;;;;;;;12.80;9.20;;;;;;;-0.16;100.00;102683.24;87163;270;136672;-65
2024/01/30 00:51:07;;;;;;;13.70;9.10;;;;;;;-0.19;100.00;102680.36;87374;274;23009;-65
2024/01/30 00:53:09;;;;;;;14.50;10.60;;;;;;;-0.21;100.00;102676.95;87191;274;136631;-67
2024/01/30 00:55:11;;;;;;;12.40;9.10;;;;;;;-0.23;100.00;102675.10;87182;266;24872;-65
2024/01/30 00:57:13;;;;;;;14.10;9.50;;;;;;;-0.26;100.00;102673.28;87306;269;136608;-65
2024/01/30 00:59:16;;;;;;;12.00;9.10;;;;;;;-0.30;100.00;102673.96;87233;261;24215;-63
2024/01/30 01:01:19;;;;;;;11.80;9.90;;;;;;;-0.33;100.00;102668.69;87128;273;136373;-63
2024/01/30 01:03:21;;;;;;;15.20;11.10;;;;;;;-0.37;100.00;102663.63;87357;273;24043;-67
2024/01/30 01:05:23;;;;;;;15.00;10.60;;;;;;;-0.43;100.00;102657.72;87123;273;137774;-62
2024/01/30 01:07:27;;;;;;;12.60;10.30;;;;;;;-0.51;100.00;102652.63;87271;277;22844;-69
2024/01/30 01:09:28;;;;;;;13.80;9.70;;;;;;;-0.50;100.00;102654.68;87159;273;137228;-70
2024/01/30 01:11:31;;;;;;;16.30;11.80;;;;;;;-0.43;100.00;102651.27;87165;269;22560;-69
2024/01/30 01:13:33;;;;;;;14.00;10.40;;;;;;;-0.39;100.00;102650.39;87211;273;137072;-64
2024/01/30 01:15:35;;;;;;;12.70;10.50;;;;;;;-0.40;100.00;102640.65;87267;265;22568;-64
2024/01/30 01:17:38;;;;;;;16.20;11.70;;;;;;;-0.44;100.00;102638.73;87230;273;137630;-65
2024/01/30 01:19:40;;;;;;;16.60;11.60;;;;;;;-0.49;100.00;102631.59;87260;269;24096;-65
2024/01/30 01:21:43;;;;;;;15.40;12.80;;;;;;;-0.56;100.00;102626.27;87111;265;138077;-67
2024/01/30 01:23:45;;;;;;;15.50;11.90;;;;;;;-0.64;100.00;102621.85;87206;273;24077;-67
2024/01/30 01:25:47;;;;;;;14.90;11.80;;;;;;;-0.71;100.00;102614.95;87081;269;136276;-69
2024/01/30 01:27:51;;;;;;;14.90;11.20;;;;;;;-0.76;100.00;102616.75;87236;268;22636;-68
2024/01/30 01:29:54;;;;;;;15.50;11.80;;;;;;;-0.81;100.00;102619.20;87201;265;136388;-65
2024/01/30 01:31:56;;;;;;;17.60;12.40;;;;;;;-0.86;100.00;102624.11;87219;265;25207;-66
2024/01/30 01:33:58;;;;;;;16.90;11.70;;;;;;;-0.84;100.00;102614.95;87245;269;137197;-65
2024/01/30 01:36:02;;;;;;;20.50;13.20;;;;;;;-0.77;100.00;102611.36;87297;271;22568;-68
2024/01/30 01:38:04;;;;;;;14.60;12.40;;;;;;;-0.73;100.00;102605.25;87312;269;25267;-63
2024/01/30 01:40:07;;;;;;;15.40;12.00;;;;;;;-0.74;100.00;102602.33;87108;277;136700;-65
2024/01/30 01:42:10;;;;;;;14.50;12.30;;;;;;;-0.80;100.00;102601.68;87345;273;22564;-65
2024/01/30 01:44:11;;;;;;;16.80;12.20;;;;;;;-0.85;100.00;102591.77;87120;266;136917;-71
2024/01/30 01:46:13;;;;;;;14.30;11.90;;;;;;;-0.88;100.00;102585.77;87339;272;22639;-67
2024/01/30 01:48:16;;;;;;;15.10;12.40;;;;;;;-0.91;100.00;102578.73;87309;276;136845;-65
2024/01/30 01:50:20;;;;;;;16.40;12.70;;;;;;;-0.95;100.00;102578.20;87319;273;22559;-65
2024/01/30 01:52:22;;;;;;;16.20;12.00;;;;;;;-0.99;100.00;102578.86;87235;268;137059;-64
2024/01/30 01:54:26;;;;;;;15.90;12.10;;;;;;;-1.03;100.00;102580.23;87321;273;25098;-63
2024/01/30 01:56:30;;;;;;;13.00;10.90;;;;;;;-1.06;100.00;102581.23;87350;273;138172;-65
2024/01/30 01:58:32;;;;;;;15.30;10.90;;;;;;;-1.09;100.00;102585.17;87423;272;22563;-65
2024/01/30 02:00:39;;;;;;;13.80;11.80;;;;;;;-1.09;100.00;102573.30;87200;264;138431;-64
2024/01/30 02:04:35;;;;;;;14.40;11.90;;;;;;;-1.06;100.00;102569.00;84967;303;603231;-67
2024/01/30 02:06:37;;;;;;;13.20;10.70;;;;;;;-1.03;100.00;102569.75;86423;287;25107;-68
2024/01/30 02:08:40;;;;;;;14.30;10.60;;;;;;;-1.03;100.00;102567.13;86048;284;136947;-66
2024/01/30 02:10:42;;;;;;;14.60;11.40;;;;;;;-1.04;100.00;102570.32;85918;289;22576;-67
2024/01/30 02:12:43;;;;;;;11.60;9.90;;;;;;;-1.05;100.00;102572.47;86643;280;135936;-63
2024/01/30 02:14:46;;;;;;;14.30;10.80;;;;;;;-1.06;100.00;102570.89;86776;276;22641;-64
2024/01/30 02:16:48;;;;;;;15.20;11.70;;;;;;;-1.08;100.00;102573.95;86603;281;137062;-71
2024/01/30 02:18:50;;;;;;;16.00;11.30;;;;;;;-1.07;100.00;102575.34;86465;273;541161;-65
2024/01/30 02:20:54;;;;;;;13.10;10.70;;;;;;;-1.09;100.00;102577.30;86889;275;137734;-70
2024/01/30 02:22:58;;;;;;;16.30;12.20;;;;;;;-1.10;100.00;102577.01;86877;275;26170;-65
2024/01/30 02:25:00;;;;;;;17.00;12.30;;;;;;;-1.10;100.00;102574.90;86768;275;138278;-67
2024/01/30 02:27:02;;;;;;;19.30;14.10;;;;;;;-1.10;100.00;102568.45;86803;275;23364;-66
2024/01/30 02:29:04;;;;;;;12.70;10.70;;;;;;;-1.12;100.00;102564.86;86606;272;136231;-64
2024/01/30 02:31:06;;;;;;;16.20;11.50;;;;;;;-1.16;100.00;102567.29;86759;275;25387;-64
2024/01/30 02:33:09;;;;;;;15.30;12.00;;;;;;;-1.15;100.00;102571.60;86877;273;136536;-67
2024/01/30 02:35:11;;;;;;;16.70;11.90;;;;;;;-1.08;100.00;102573.94;87064;273;22579;-65
2024/01/30 02:37:13;;;;;;;15.10;11.50;;;;;;;-1.03;100.00;102573.07;87181;273;136930;-64
2024/01/30 02:39:15;;;;;;;14.40;11.30;;;;;;;-1.05;100.00;102569.81;87076;270;25223;-63
2024/01/30 02:41:16;;;;;;;16.70;10.70;;;;;;;-1.10;100.00;102574.55;86772;277;137783;-66
2024/01/30 02:43:19;;;;;;;12.80;10.20;;;;;;;-1.17;100.00;102573.76;87023;273;23757;-64
2024/01/30 02:45:21;;;;;;;14.50;10.70;;;;;;;-1.21;100.00;102577.23;86922;279;136568;-69
2024/01/30 02:47:22;;;;;;;15.50;11.60;;;;;;;-1.25;100.00;102580.35;87087;278;25321;-64
2024/01/30 02:49:24;;;;;;;13.70;11.20;;;;;;;-1.27;100.00;102581.31;87077;273;136379;-63
2024/01/30 02:51:26;;;;;;;15.60;12.80;;;;;;;-1.28;100.00;102574.88;86975;270;25099;-65
2024/01/30 02:53:28;;;;;;;16.10;11.70;;;;;;;-1.27;100.00;102579.91;86992;273;137709;-64
2024/01/30 02:55:29;;;;;;;14.60;11.70;;;;;;;-1.27;100.00;102579.20;86940;282;22579;-63
2024/01/30 02:57:32;;;;;;;15.40;12.70;;;;;;;-1.25;100.00;102580.37;86969;283;136455;-63
2024/01/30 02:59:35;;;;;;;16.80;12.70;;;;;;;-1.25;100.00;102581.56;87059;275;24478;-65
2024/01/30 03:01:44;;;;;;;16.70;13.40;;;;;;;-1.25;100.00;102575.13;87018;281;136524;-65
2024/01/30 03:03:46;;;;;;;14.60;11.70;;;;;;;-1.27;100.00;102574.48;87212;278;22567;-64
2024/01/30 03:05:48;;;;;;;15.90;11.10;;;;;;;-1.30;100.00;102571.45;86928;270;136371;-63
2024/01/30 03:07:50;;;;;;;17.80;12.40;;;;;;;-1.25;100.00;102568.50;86934;273;25165;-64
2024/01/30 03:09:52;;;;;;;13.90;11.80;;;;;;;-1.16;100.00;102564.47;86888;270;137482;-67
2024/01/30 03:11:54;;;;;;;13.90;12.20;;;;;;;-1.09;100.00;102565.45;87124;281;22575;-70
2024/01/30 03:13:57;;;;;;;16.60;12.00;;;;;;;-1.08;100.00;102563.68;86896;273;136059;-63
2024/01/30 03:15:59;;;;;;;18.70;13.10;;;;;;;-1.12;100.00;102572.20;87009;281;24099;-64
2024/01/30 03:18:03;;;;;;;18.90;13.10;;;;;;;-1.16;100.00;102572.00;86933;282;135988;-65
2024/01/30 03:20:06;;;;;;;17.00;13.20;;;;;;;-1.19;100.00;102575.23;86919;274;136515;-63
2024/01/30 03:22:08;;;;;;;17.20;13.70;;;;;;;-1.20;100.00;102569.02;86972;282;25305;-64
2024/01/30 03:24:10;;;;;;;16.60;12.20;;;;;;;-1.22;100.00;102571.33;86936;282;136434;-69
2024/01/30 03:26:13;;;;;;;14.80;11.80;;;;;;;-1.21;100.00;102570.61;87148;270;24149;-63
2024/01/30 03:28:14;;;;;;;17.60;12.50;;;;;;;-1.23;100.00;102564.90;86920;275;136632;-63
2024/01/30 03:30:17;;;;;;;20.10;12.60;;;;;;;-1.26;100.00;102560.31;86972;282;22594;-63
2024/01/30 03:32:20;;;;;;;18.50;13.00;;;;;;;-1.30;100.00;102553.83;86843;274;136814;-62
2024/01/30 03:34:21;;;;;;;14.60;12.00;;;;;;;-1.34;100.00;102553.64;87051;281;24042;-67
2024/01/30 03:36:23;;;;;;;16.70;13.20;;;;;;;-1.39;100.00;102558.54;86927;273;137741;-63
2024/01/30 03:38:25;;;;;;;12.70;11.30;;;;;;;-1.42;100.00;102559.88;87195;281;22637;-63
2024/01/30 03:40:27;;;;;;;16.50;13.40;;;;;;;-1.45;100.00;102558.77;86875;283;136677;-63
2024/01/30 03:42:29;;;;;;;15.60;12.80;;;;;;;-1.42;100.00;102558.66;87175;270;22578;-70
2024/01/30 03:44:30;;;;;;;17.40;12.10;;;;;;;-1.35;100.00;102559.61;86990;278;137374;-66
2024/01/30 03:46:32;;;;;;;13.30;11.40;;;;;;;-1.28;100.00;102561.27;87090;278;22658;-65
2024/01/30 03:48:36;;;;;;;14.40;11.30;;;;;;;-1.28;100.00;102553.96;86993;281;137573;-65
2024/01/30 03:50:38;;;;;;;16.00;12.90;;;;;;;-1.31;100.00;102555.30;86987;274;23965;-64
2024/01/30 03:52:40;;;;;;;15.00;12.50;;;;;;;-1.35;100.00;102556.46;86918;278;136539;-66
2024/01/30 03:54:42;;;;;;;16.20;12.20;;;;;;;-1.37;100.00;102554.78;87165;281;22609;-65
2024/01/30 03:56:44;;;;;;;15.60;12.20;;;;;;;-1.37;100.00;102555.84;87150;280;137675;-63
2024/01/30 03:58:45;;;;;;;15.10;11.30;;;;;;;-1.38;100.00;102553.77;87219;276;24237;-64
2024/01/30 04:00:47;;;;;;;15.20;11.30;;;;;;;-1.38;100.00;102549.77;87079;280;136175;-65
2024/01/30 04:02:51;;;;;;;15.30;11.50;;;;;;;-1.39;100.00;102544.20;87102;281;22588;-67
2024/01/30 04:04:52;;;;;;;16.10;12.20;;;;;;;-1.41;100.00;102544.44;86909;269;136151;-67
2024/01/30 04:06:55;;;;;;;13.00;10.80;;;;;;;-1.42;100.00;102542.41;86954;278;22562;-66
2024/01/30 04:08:56;;;;;;;12.90;10.80;;;;;;;-1.43;100.00;102541.41;86974;273;136184;-66
2024/01/30 04:10:58;;;;;;;15.70;12.10;;;;;;;-1.44;100.00;102538.48;87083;265;25434;-64
2024/01/30 04:13:00;;;;;;;15.80;11.50;;;;;;;-1.39;100.00;102534.98;87011;273;137007;-65
2024/01/30 04:15:03;;;;;;;14.90;11.80;;;;;;;-1.35;100.00;102533.63;87248;276;25245;-64
2024/01/30 04:17:05;;;;;;;12.40;10.50;;;;;;;-1.32;100.00;102533.34;87139;273;136883;-72
2024/01/30 04:19:07;;;;;;;12.80;10.40;;;;;;;-1.34;100.00;102530.08;87127;289;22850;-64
2024/01/30 04:21:08;;;;;;;15.40;11.00;;;;;;;-1.37;100.00;102530.73;87126;276;136292;-65
2024/01/30 04:23:10;;;;;;;14.60;11.60;;;;;;;-1.39;100.00;102526.08;87210;276;24011;-66
2024/01/30 04:25:13;;;;;;;11.70;10.30;;;;;;;-1.40;100.00;102522.13;86816;271;137082;-64
2024/01/30 04:27:16;;;;;;;13.70;11.40;;;;;;;-1.42;100.00;102528.63;87300;280;22585;-66
2024/01/30 04:29:17;;;;;;;14.30;11.90;;;;;;;-1.44;100.00;102530.11;87079;280;136496;-65
2024/01/30 04:31:19;;;;;;;15.00;11.30;;;;;;;-1.47;100.00;102533.55;87206;273;22570;-69
2024/01/30 04:33:22;;;;;;;17.10;12.70;;;;;;;-1.50;100.00;102528.41;87173;268;136370;-64
2024/01/30 04:35:24;;;;;;;14.00;11.60;;;;;;;-1.52;100.00;102529.70;87141;273;22562;-63
2024/01/30 04:37:27;;;;;;;17.00;12.50;;;;;;;-1.54;100.00;102531.86;87087;276;136188;-66
2024/01/30 04:39:29;;;;;;;13.60;11.20;;;;;;;-1.58;100.00;102527.30;87190;277;23454;-64
2024/01/30 04:41:32;;;;;;;15.90;11.80;;;;;;;-1.57;100.00;102529.54;87008;276;136537;-66
2024/01/30 04:43:34;;;;;;;14.30;11.20;;;;;;;-1.49;100.00;102530.83;87108;272;24939;-63
2024/01/30 04:45:36;;;;;;;13.00;10.40;;;;;;;-1.42;100.00;102524.63;87021;272;136764;-64
2024/01/30 04:47:38;;;;;;;13.10;10.40;;;;;;;-1.41;100.00;102523.90;87178;265;24319;-68
2024/01/30 04:49:41;;;;;;;14.50;11.80;;;;;;;-1.45;100.00;102521.44;87143;281;136401;-66
2024/01/30 04:51:42;;;;;;;13.50;11.30;;;;;;;-1.48;100.00;102522.42;87106;274;22562;-65
2024/01/30 04:53:44;;;;;;;17.10;12.70;;;;;;;-1.51;100.00;102525.84;86929;281;136580;-67
2024/01/30 04:55:48;;;;;;;13.70;12.20;;;;;;;-1.53;100.00;102526.61;87087;281;22661;-62
2024/01/30 04:57:50;;;;;;;15.00;11.70;;;;;;;-1.54;100.00;102528.75;86968;281;136476;-68
2024/01/30 04:59:52;;;;;;;16.40;13.30;;;;;;;-1.58;100.00;102522.41;87154;277;23739;-68
2024/01/30 05:01:54;;;;;;;15.70;12.70;;;;;;;-1.61;100.00;102521.50;87123;269;137587;-65
2024/01/30 05:03:58;;;;;;;17.40;12.50;;;;;;;-1.65;100.00;102518.14;87220;272;24382;-67
2024/01/30 05:06:00;;;;;;;15.20;12.30;;;;;;;-1.70;100.00;102520.27;86983;281;137147;-65
2024/01/30 05:08:02;;;;;;;16.30;12.80;;;;;;;-1.74;100.00;102516.73;86910;269;136813;-65
2024/01/30 05:10:04;;;;;;;17.20;12.80;;;;;;;-1.70;100.00;102512.59;87084;280;22583;-64
2024/01/30 05:12:08;;;;;;;15.60;12.00;;;;;;;-1.61;100.00;102514.17;87056;281;137481;-66
2024/01/30 05:14:10;;;;;;;16.60;14.10;;;;;;;-1.56;100.00;102517.83;87028;274;25296;-64
2024/01/30 05:16:13;;;;;;;15.70;12.50;;;;;;;-1.58;100.00;102515.26;86761;274;137418;-67
2024/01/30 05:18:15;;;;;;;15.30;13.00;;;;;;;-1.64;100.00;102512.19;87125;272;25121;-66
2024/01/30 05:20:17;;;;;;;17.20;13.30;;;;;;;-1.69;100.00;102509.59;87114;271;137535;-67
2024/01/30 05:22:20;;;;;;;19.70;15.30;;;;;;;-1.70;100.00;102511.71;87423;267;22561;-65
2024/01/30 05:24:22;;;;;;;31.90;16.10;;;;;;;-1.70;100.00;102511.53;87154;274;137557;-70
2024/01/30 05:26:27;;;;;;;20.60;14.90;;;;;;;-1.74;100.00;102510.63;87298;275;25082;-68
2024/01/30 05:28:29;;;;;;;22.10;14.70;;;;;;;-1.78;100.00;102518.96;87176;271;136719;-64
2024/01/30 05:30:32;;;;;;;21.70;13.10;;;;;;;-1.83;100.00;102523.65;87410;266;22652;-66
2024/01/30 05:32:33;;;;;;;32.80;16.00;;;;;;;-1.84;100.00;102520.56;87184;278;137023;-66
2024/01/30 05:34:37;;;;;;;33.60;15.10;;;;;;;-1.78;100.00;102520.34;87285;271;22938;-67
2024/01/30 05:36:39;;;;;;;16.40;13.30;;;;;;;-1.70;100.00;102523.59;87310;271;138506;-63
2024/01/30 05:38:40;;;;;;;22.60;14.40;;;;;;;-1.70;100.00;102524.27;87234;278;25117;-64
2024/01/30 05:40:42;;;;;;;19.10;14.10;;;;;;;-1.75;100.00;102527.58;87200;271;137964;-67
2024/01/30 05:42:44;;;;;;;21.20;15.00;;;;;;;-1.78;100.00;102527.33;87235;274;22584;-65
2024/01/30 05:44:46;;;;;;;18.40;14.80;;;;;;;-1.79;100.00;102520.39;87166;267;137950;-66
2024/01/30 05:46:47;;;;;;;21.70;16.40;;;;;;;-1.80;100.00;102521.31;87261;269;25249;-65
2024/01/30 05:48:49;;;;;;;22.60;17.50;;;;;;;-1.81;100.00;102517.84;87210;269;136728;-65
2024/01/30 05:50:51;;;;;;;21.30;16.90;;;;;;;-1.83;100.00;102518.26;87339;278;22562;-66
2024/01/30 05:52:54;;;;;;;19.10;15.90;;;;;;;-1.84;100.00;102519.00;87196;269;136708;-66
2024/01/30 05:54:56;;;;;;;21.70;15.90;;;;;;;-1.84;100.00;102525.63;87154;269;22564;-67
2024/01/30 05:56:58;;;;;;;20.60;16.80;;;;;;;-1.81;100.00;102525.67;87088;267;137583;-64
2024/01/30 05:59:00;;;;;;;21.10;16.20;;;;;;;-1.69;100.00;102523.36;87199;274;23910;-65
2024/01/30 06:01:01;;;;;;;19.50;15.40;;;;;;;-1.54;100.00;102528.05;87138;271;137324;-68
2024/01/30 06:03:05;;;;;;;17.70;14.20;;;;;;;-1.35;100.00;102527.86;87511;267;22572;-64
2024/01/30 06:05:07;;;;;;;18.20;15.30;;;;;;;-1.26;100.00;102530.82;87144;271;136754;-65
2024/01/30 06:07:09;;;;;;;22.60;15.90;;;;;;;-1.27;100.00;102532.09;87254;274;22583;-66
2024/01/30 06:09:12;;;;;;;25.20;17.40;;;;;;;-1.29;100.00;102527.14;87021;271;136755;-69
2024/01/30 06:11:14;;;;;;;24.90;17.50;;;;;;;-1.29;100.00;102526.59;88431;270;25117;-67
2024/01/30 06:13:16;;;;;;;32.00;18.30;;;;;;;-1.26;100.00;102523.71;87094;274;136607;-63
2024/01/30 06:15:18;;;;;;;23.60;16.70;;;;;;;-1.27;100.00;102524.23;87207;270;22555;-67
2024/01/30 06:17:20;;;;;;;20.80;17.20;;;;;;;-1.30;100.00;102525.41;87022;269;136775;-66
2024/01/30 06:19:21;;;;;;;21.10;16.40;;;;;;;-1.32;100.00;102519.73;87753;275;25188;-62
2024/01/30 06:21:24;;;;;;;24.10;19.10;;;;;;;-1.34;100.00;102519.13;87052;269;136938;-75
2024/01/30 06:23:26;;;;;;;24.40;18.10;;;;;;;-1.30;100.00;102518.77;87180;269;23515;-68
2024/01/30 06:25:27;;;;;;;25.20;16.50;;;;;;;-1.18;100.00;102517.45;87088;267;137461;-66
2024/01/30 06:27:29;;;;;;;24.00;17.10;;;;;;;-1.07;100.00;102516.88;87081;276;25185;-73
2024/01/30 06:29:31;;;;;;;17.90;13.50;;;;;;;-1.03;100.00;102516.36;87056;271;136525;-69
2024/01/30 06:31:40;;;;;;;23.80;16.30;;;;;;;-1.05;100.00;102519.21;87211;268;24284;-71
2024/01/30 06:33:42;;;;;;;23.50;18.00;;;;;;;-1.08;100.00;102517.75;87123;271;138109;-69
2024/01/30 06:35:45;;;;;;;25.20;18.10;;;;;;;-1.08;100.00;102516.70;86997;280;22566;-67
2024/01/30 06:37:47;;;;;;;24.10;16.80;;;;;;;-1.05;100.00;102523.61;87050;274;136539;-65
2024/01/30 06:39:49;;;;;;;25.60;16.80;;;;;;;-1.05;100.00;102522.54;87139;278;25302;-68
2024/01/30 06:41:50;;;;;;;20.10;16.90;;;;;;;-1.02;100.00;102524.88;86945;276;136760;-69
2024/01/30 06:43:52;;;;;;;21.00;15.00;;;;;;;-1.00;100.00;102521.10;86990;280;22937;-67
2024/01/30 06:45:54;;;;;;;24.90;18.00;;;;;;;-0.92;100.00;102522.73;87095;269;138212;-68
2024/01/30 06:47:55;;;;;;;21.50;15.90;;;;;;;-0.80;100.00;102520.16;87066;278;22568;-66
2024/01/30 06:49:57;;;;;;;20.70;14.00;;;;;;;-0.69;100.00;102517.80;87003;271;137581;-69
2024/01/30 06:52:01;;;;;;;21.60;16.30;;;;;;;-0.65;100.00;102517.11;87227;267;25085;-71
2024/01/30 06:54:03;;;;;;;20.10;15.90;;;;;;;-0.63;100.00;102515.11;87186;271;22846;-78
2024/01/30 06:56:05;;;;;;;24.80;15.00;;;;;;;-0.59;100.00;102513.05;87303;266;136544;-69
2024/01/30 06:58:07;;;;;;;22.70;16.60;;;;;;;-0.54;100.00;102511.10;87189;267;25087;-66
2024/01/30 07:00:10;;;;;;;29.30;17.80;;;;;;;-0.51;100.00;102512.20;87119;267;136941;-70
2024/01/30 07:02:12;;;;;;;21.00;16.50;;;;;;;-0.49;100.00;102510.35;87043;273;22516;-68
2024/01/30 07:04:15;;;;;;;23.50;18.30;;;;;;;-0.46;100.00;102514.60;87064;271;136742;-66
2024/01/30 07:06:17;;;;;;;20.20;15.80;;;;;;;-0.44;100.00;102512.95;87196;267;25169;-64
2024/01/30 07:08:22;;;;;;;22.90;14.80;;;;;;;-0.40;100.00;102513.66;87229;275;136803;-68
2024/01/30 07:10:24;;;;;;;22.50;16.50;;;;;;;-0.37;100.00;102509.86;87138;267;24158;-79
2024/01/30 07:12:28;;;;;;;21.60;16.50;;;;;;;-0.24;100.00;102512.45;87168;271;137231;-64
2024/01/30 07:14:30;;;;;;;23.40;17.40;;;;;;;-0.13;100.00;102506.08;86997;273;25574;-71
2024/01/30 07:16:32;;;;;;;22.60;17.00;;;;;;;-0.02;100.00;102509.44;87198;278;136881;-61
2024/01/30 07:18:37;;;;;;;20.50;15.80;;;;;;;0.07;100.00;102508.52;87401;266;22737;-61
2024/01/30 07:20:46;;;;;;;23.30;18.50;;;;;;;0.10;100.00;102507.14;87027;271;136396;-63
2024/01/30 07:22:48;;;;;;;26.00;18.20;;;;;;;0.15;100.00;102506.42;87488;271;25088;-63
2024/01/30 07:24:51;;;;;;;25.30;17.90;;;;;;;0.21;100.00;102508.45;87091;267;139032;-69
2024/01/30 07:26:54;;;;;;;28.20;19.90;;;;;;;0.27;100.00;102510.24;87007;271;22977;-73
2024/01/30 07:28:57;;;;;;;26.90;19.70;;;;;;;0.33;100.00;102503.55;87157;271;137845;-66
2024/01/30 07:30:59;;;;;;;25.20;17.50;;;;;;;0.41;100.00;102499.66;87107;279;24094;-64
2024/01/30 07:33:01;;;;;;;23.30;15.80;;;;;;;0.48;100.00;102494.45;87036;267;136538;-61
2024/01/30 07:35:04;;;;;;;27.10;17.40;;;;;;;0.52;100.00;102492.70;87221;263;25197;-65
2024/01/30 07:37:10;;;;;;;23.80;16.70;;;;;;;0.56;100.00;102491.65;87274;275;136776;-64
2024/01/30 07:39:12;;;;;;;25.70;17.20;;;;;;;0.62;100.00;102487.02;87272;267;22915;-63
2024/01/30 07:41:14;;;;;;;27.50;17.90;;;;;;;0.67;100.00;102485.55;86958;278;136301;-75
2024/01/30 07:43:16;;;;;;;25.70;18.30;;;;;;;0.73;100.00;102488.26;87144;271;22574;-64
2024/01/30 07:45:22;;;;;;;21.70;16.80;;;;;;;0.77;100.00;102486.31;87016;264;136409;-72
2024/01/30 07:47:24;;;;;;;23.90;16.70;;;;;;;0.81;100.00;102487.51;87307;271;22649;-63
2024/01/30 07:49:26;;;;;;;23.80;15.10;;;;;;;0.85;100.00;102486.65;87092;278;136432;-64
2024/01/30 07:51:29;;;;;;;24.10;15.40;;;;;;;0.91;100.00;102491.24;87184;267;22562;-63
2024/01/30 07:53:30;;;;;;;22.10;13.90;;;;;;;1.00;100.00;102488.03;87073;271;137042;-62
2024/01/30 07:55:32;;;;;;;21.90;14.20;;;;;;;1.07;100.00;102479.81;87181;271;23642;-61
2024/01/30 07:57:35;;;;;;;22.20;14.90;;;;;;;1.07;100.00;102480.84;87109;271;136631;-65
2024/01/30 07:59:37;;;;;;;18.50;13.80;;;;;;;1.03;100.00;102477.20;87057;271;25115;-63
2024/01/30 08:01:39;;;;;;;20.60;13.10;;;;;;;1.03;100.00;102477.18;87095;269;136730;-65
2024/01/30 08:03:41;;;;;;;18.50;13.50;;;;;;;1.05;100.00;102476.60;87174;270;22557;-68
2024/01/30 08:05:45;;;;;;;21.00;14.10;;;;;;;1.08;100.00;102478.86;87237;279;137968;-70
2024/01/30 08:07:49;;;;;;;18.30;13.60;;;;;;;1.12;100.00;102480.78;87072;273;22787;-64
2024/01/30 08:09:51;;;;;;;19.90;14.80;;;;;;;1.15;100.00;102479.94;87135;267;136560;-64
2024/01/30 08:11:53;;;;;;;18.10;14.20;;;;;;;1.18;100.00;102479.31;87140;266;25081;-67
2024/01/30 08:13:55;;;;;;;21.90;14.20;;;;;;;1.20;100.00;102478.70;86934;276;137067;-66
2024/01/30 08:15:57;;;;;;;23.10;15.80;;;;;;;1.24;100.00;102477.23;87138;274;22592;-63
2024/01/30 08:17:59;;;;;;;23.10;14.40;;;;;;;1.28;100.00;102478.27;87103;274;136968;-70
2024/01/30 08:20:01;;;;;;;21.40;13.60;;;;;;;1.34;100.00;102472.87;87138;280;25094;-69
2024/01/30 08:22:03;;;;;;;19.70;13.80;;;;;;;1.41;100.00;102469.57;87195;271;25281;-64
2024/01/30 08:24:06;;;;;;;19.50;13.80;;;;;;;1.45;100.00;102465.86;87160;274;138058;-62
2024/01/30 08:26:08;;;;;;;18.20;13.80;;;;;;;1.48;100.00;102464.68;87263;278;22571;-64
2024/01/30 08:28:10;;;;;;;15.40;11.50;;;;;;;1.51;100.00;102462.58;87197;278;138157;-69
2024/01/30 08:30:12;;;;;;;14.10;12.00;;;;;;;1.55;100.00;102463.45;87270;278;22638;-67
2024/01/30 08:32:14;;;;;;;17.20;13.60;;;;;;;1.60;100.00;102461.61;87130;278;136826;-67
2024/01/30 08:34:16;;;;;;;20.30;14.00;;;;;;;1.63;100.00;102459.36;87406;271;25092;-63
2024/01/30 08:36:19;;;;;;;20.00;14.40;;;;;;;1.68;100.00;102458.20;86909;271;137824;-64
2024/01/30 08:38:21;;;;;;;19.90;14.40;;;;;;;1.74;100.00;102458.11;87327;271;25175;-69
2024/01/30 08:40:23;;;;;;;22.30;14.60;;;;;;;1.77;100.00;102459.86;87084;275;136536;-64
2024/01/30 08:42:25;;;;;;;20.30;15.30;;;;;;;1.78;100.00;102462.26;87201;267;25196;-62
2024/01/30 08:44:27;;;;;;;20.60;14.80;;;;;;;1.79;100.00;102457.16;87042;271;136457;-67
2024/01/30 08:46:30;;;;;;;20.20;14.30;;;;;;;1.82;100.00;102456.81;87221;267;22782;-68
2024/01/30 08:48:32;;;;;;;16.90;13.10;;;;;;;1.84;100.00;102454.59;87198;275;136806;-67
2024/01/30 08:50:34;;;;;;;20.00;15.20;;;;;;;1.85;100.00;102457.37;87214;271;24846;-63
2024/01/30 08:52:36;;;;;;;18.90;13.30;;;;;;;1.84;100.00;102450.22;87093;267;136584;-63
2024/01/30 08:54:38;;;;;;;19.00;14.80;;;;;;;1.85;100.00;102446.49;87259;274;22570;-68
2024/01/30 08:56:40;;;;;;;18.90;12.80;;;;;;;1.84;100.00;102439.69;87023;271;136423;-68
2024/01/30 08:58:42;;;;;;;18.90;13.90;;;;;;;1.84;100.00;102435.66;87155;275;22561;-69
2024/01/30 09:00:43;;;;;;;17.00;13.30;;;;;;;1.85;100.00;102432.13;87104;274;136359;-63
2024/01/30 09:02:45;;;;;;;19.80;15.10;;;;;;;1.89;100.00;102429.44;87213;269;22572;-64
2024/01/30 09:04:47;;;;;;;19.40;14.60;;;;;;;1.95;100.00;102425.09;87045;263;137544;-71
2024/01/30 09:06:50;;;;;;;18.70;13.90;;;;;;;2.02;100.00;102418.40;87177;270;22572;-63
2024/01/30 09:08:52;;;;;;;17.10;14.00;;;;;;;2.07;100.00;102414.83;87074;271;137636;-67
2024/01/30 09:10:56;;;;;;;18.90;14.10;;;;;;;2.10;100.00;102416.42;87367;271;22706;-70
2024/01/30 09:12:59;;;;;;;19.30;14.30;;;;;;;2.17;100.00;102418.66;87264;272;136804;-64
2024/01/30 09:15:01;;;;;;;21.90;15.80;;;;;;;2.24;100.00;102419.34;87136;274;24196;-65